createdAt,value
2022-10-17T00:00:55.351Z,100.00
2022-10-17T00:03:43.265Z,100.00
2022-10-17T00:06:30.875Z,100.00
2022-10-17T00:09:18.896Z,100.00
2022-10-17T00:12:06.654Z,100.00
2022-10-17T00:14:54.245Z,100.00
2022-10-17T00:17:42.215Z,100.00
2022-10-17T00:20:30.672Z,100.00
2022-10-17T00:23:18.679Z,100.00
2022-10-17T00:26:06.401Z,100.00
2022-10-17T00:28:54.161Z,100.00
2022-10-17T00:31:42.002Z,100.00
2022-10-17T00:34:31.241Z,100.00
2022-10-17T00:37:18.818Z,100.00
2022-10-17T00:40:07.583Z,100.00
2022-10-17T00:42:55.202Z,100.00
2022-10-17T00:45:43.097Z,100.00
2022-10-17T00:48:33.533Z,100.00
2022-10-17T00:51:32.276Z,100.00
2022-10-17T00:54:25.595Z,100.00
2022-10-17T00:57:14.172Z,100.00
2022-10-17T01:00:07.286Z,100.00
2022-10-17T01:02:56.019Z,100.00
2022-10-17T01:05:44.225Z,100.00
2022-10-17T01:08:31.911Z,100.00
2022-10-17T01:11:33.044Z,100.00
2022-10-17T01:14:26.708Z,100.00
2022-10-17T01:17:55.362Z,100.00
2022-10-17T01:21:14.647Z,100.00
2022-10-17T01:24:41.911Z,100.00
2022-10-17T01:27:47.164Z,100.00
2022-10-17T01:30:59.097Z,100.00
2022-10-17T01:33:57.114Z,100.00
2022-10-17T01:37:06.421Z,100.00
2022-10-17T01:39:57.894Z,100.00
2022-10-17T01:42:57.407Z,100.00
2022-10-17T01:46:02.869Z,100.00
2022-10-17T01:48:50.836Z,100.00
2022-10-17T01:51:46.217Z,100.00
2022-10-17T01:54:45.693Z,100.00
2022-10-17T01:57:42.607Z,100.00
2022-10-17T02:00:31.430Z,100.00
2022-10-17T02:03:22.011Z,100.00
2022-10-17T02:06:09.847Z,100.00
2022-10-17T02:08:57.328Z,100.00
2022-10-17T02:12:15.269Z,100.00
2022-10-17T02:15:54.562Z,100.00
2022-10-17T02:19:20.527Z,100.00
2022-10-17T02:22:26.426Z,100.00
2022-10-17T02:25:39.019Z,100.00
2022-10-17T02:29:13.782Z,100.00
2022-10-17T02:32:08.685Z,100.00
2022-10-17T02:34:58.658Z,100.00
2022-10-17T02:37:48.522Z,100.00
2022-10-17T02:40:38.153Z,100.00
2022-10-17T02:43:26.183Z,100.00
2022-10-17T02:46:22.763Z,100.00
2022-10-17T02:49:36.738Z,100.00
2022-10-17T02:52:39.200Z,100.00
2022-10-17T02:55:36.603Z,100.00
2022-10-17T02:58:31.197Z,100.00
2022-10-17T03:01:19.985Z,100.00
2022-10-17T03:04:15.073Z,100.00
2022-10-17T03:07:03.461Z,100.00
2022-10-17T03:09:51.147Z,100.00
2022-10-17T03:12:39.037Z,100.00
2022-10-17T03:15:28.403Z,100.00
2022-10-17T03:18:16.174Z,100.00
2022-10-17T03:21:05.684Z,100.00
2022-10-17T03:23:53.877Z,100.00
2022-10-17T03:26:42.426Z,100.00
2022-10-17T03:29:30.586Z,100.00
2022-10-17T03:32:18.741Z,100.00
2022-10-17T03:35:07.689Z,100.00
2022-10-17T03:37:57.304Z,100.00
2022-10-17T03:40:45.136Z,100.00
2022-10-17T03:43:35.821Z,100.00
2022-10-17T03:46:23.708Z,100.00
2022-10-17T03:49:12.076Z,100.00
2022-10-17T03:52:00.150Z,100.00
2022-10-17T03:54:51.336Z,100.00
2022-10-17T03:57:42.135Z,100.00
2022-10-17T04:00:33.033Z,100.00
2022-10-17T04:03:20.811Z,100.00
2022-10-17T04:06:12.200Z,100.00
2022-10-17T04:09:00.544Z,100.00
2022-10-17T04:12:03.733Z,100.00
2022-10-17T04:14:51.663Z,100.00
2022-10-17T04:17:39.395Z,100.00
2022-10-17T04:20:27.131Z,100.00
2022-10-17T04:23:14.935Z,100.00
2022-10-17T04:26:04.179Z,100.00
2022-10-17T04:28:52.374Z,100.00
2022-10-17T04:31:40.339Z,100.00
2022-10-17T04:34:35.152Z,100.00
2022-10-17T04:37:22.751Z,100.00
2022-10-17T04:40:14.128Z,100.00
2022-10-17T04:43:01.682Z,100.00
2022-10-17T04:45:54.460Z,100.00
2022-10-17T04:48:42.745Z,100.00
2022-10-17T04:51:31.235Z,100.00
2022-10-17T04:54:34.783Z,100.00
2022-10-17T04:57:30.218Z,100.00
2022-10-17T05:00:24.513Z,100.00
2022-10-17T05:03:21.390Z,100.00
2022-10-17T05:06:16.566Z,100.00
2022-10-17T05:09:06.271Z,100.00
2022-10-17T05:11:54.585Z,100.00
2022-10-17T05:14:42.412Z,100.00
2022-10-17T05:17:29.874Z,100.00
2022-10-17T05:20:17.390Z,100.00
2022-10-17T05:23:05.072Z,100.00
2022-10-17T05:25:55.986Z,100.00
2022-10-17T05:28:44.778Z,100.00
2022-10-17T05:31:32.830Z,100.00
2022-10-17T05:34:20.544Z,100.00
2022-10-17T05:37:08.720Z,100.00
2022-10-17T05:39:57.152Z,100.00
2022-10-17T05:42:49.272Z,100.00
2022-10-17T05:45:38.233Z,100.00
2022-10-17T05:48:27.487Z,100.00
2022-10-17T05:51:15.862Z,100.00
2022-10-17T05:54:07.086Z,100.00
2022-10-17T05:56:56.929Z,100.00
2022-10-17T05:59:47.444Z,100.00
2022-10-17T06:02:39.540Z,100.00
2022-10-17T06:05:27.446Z,100.00
2022-10-17T06:08:15.493Z,100.00
2022-10-17T06:11:07.506Z,99.97
2022-10-17T06:13:57.771Z,100.00
2022-10-17T06:16:49.110Z,100.00
2022-10-17T06:19:37.027Z,100.00
2022-10-17T06:22:25.037Z,100.00
2022-10-17T06:25:12.980Z,100.00
2022-10-17T06:28:00.865Z,99.95
2022-10-17T06:30:49.077Z,99.97
2022-10-17T06:33:36.924Z,99.71
2022-10-17T06:36:25.643Z,98.97
2022-10-17T06:39:13.568Z,99.01
2022-10-17T06:42:06.447Z,99.14
2022-10-17T06:45:06.458Z,98.80
2022-10-17T06:48:12.285Z,97.83
2022-10-17T06:51:22.827Z,97.68
2022-10-17T06:54:15.394Z,97.42
2022-10-17T06:57:10.288Z,97.06
2022-10-17T07:00:23.448Z,96.76
2022-10-17T07:03:13.914Z,95.81
2022-10-17T07:06:02.225Z,94.99
2022-10-17T07:08:50.601Z,91.82
2022-10-17T07:11:40.372Z,90.61
2022-10-17T07:14:32.267Z,89.63
2022-10-17T07:17:20.351Z,84.24
2022-10-17T07:20:09.194Z,76.56
2022-10-17T07:22:58.470Z,69.91
2022-10-17T07:25:46.107Z,64.83
2022-10-17T07:28:40.504Z,57.20
2022-10-17T07:31:41.051Z,53.40
2022-10-17T07:34:31.483Z,47.97
2022-10-17T07:37:19.610Z,48.15
2022-10-17T07:40:13.435Z,46.57
2022-10-17T07:43:01.233Z,48.06
2022-10-17T07:45:49.005Z,49.19
2022-10-17T07:48:36.734Z,50.13
2022-10-17T07:51:24.985Z,46.60
2022-10-17T07:54:12.492Z,44.00
2022-10-17T07:57:00.545Z,42.47
2022-10-17T07:59:48.425Z,43.89
2022-10-17T08:02:35.776Z,45.20
2022-10-17T08:05:23.747Z,46.80
2022-10-17T08:08:11.544Z,48.57
2022-10-17T08:11:07.432Z,49.41
2022-10-17T08:13:54.992Z,51.07
2022-10-17T08:16:43.367Z,51.57
2022-10-17T08:19:30.725Z,52.27
2022-10-17T08:22:19.034Z,52.46
2022-10-17T08:25:07.728Z,52.99
2022-10-17T08:27:55.675Z,53.22
2022-10-17T08:30:43.651Z,54.19
2022-10-17T08:33:32.191Z,55.04
2022-10-17T08:36:21.220Z,55.70
2022-10-17T08:39:09.260Z,56.59
2022-10-17T08:42:06.028Z,57.55
2022-10-17T08:45:27.609Z,58.60
2022-10-17T08:48:21.125Z,57.93
2022-10-17T08:51:30.350Z,55.30
2022-10-17T08:54:41.200Z,54.43
2022-10-17T08:57:29.398Z,55.41
2022-10-17T09:00:22.600Z,55.30
2022-10-17T09:03:44.190Z,53.93
2022-10-17T09:06:43.413Z,53.97
2022-10-17T09:09:40.474Z,55.23
2022-10-17T09:13:16.665Z,56.10
2022-10-17T09:16:37.456Z,57.84
2022-10-17T09:19:40.719Z,58.28
2022-10-17T09:22:38.096Z,58.76
2022-10-17T09:25:28.512Z,58.46
2022-10-17T09:28:27.354Z,58.51
2022-10-17T09:31:23.845Z,58.40
2022-10-17T09:34:14.795Z,58.33
2022-10-17T09:37:03.676Z,59.00
2022-10-17T09:39:51.552Z,59.19
2022-10-17T09:42:39.974Z,59.46
2022-10-17T09:45:31.369Z,59.13
2022-10-17T09:48:26.571Z,59.54
2022-10-17T09:51:25.651Z,59.25
2022-10-17T09:54:27.768Z,58.84
2022-10-17T09:57:17.858Z,55.91
2022-10-17T10:00:20.484Z,53.72
2022-10-17T10:03:26.411Z,54.50
2022-10-17T10:06:20.447Z,56.39
2022-10-17T10:09:41.244Z,57.76
2022-10-17T10:12:39.876Z,59.03
2022-10-17T10:15:42.436Z,59.76
2022-10-17T10:18:36.569Z,58.45
2022-10-17T10:21:27.128Z,57.60
2022-10-17T10:24:15.145Z,58.09
2022-10-17T10:27:04.383Z,58.16
2022-10-17T10:29:53.537Z,59.15
2022-10-17T10:32:48.025Z,60.24
2022-10-17T10:35:37.847Z,61.28
2022-10-17T10:38:25.766Z,62.28
2022-10-17T10:41:13.754Z,63.11
2022-10-17T10:44:01.973Z,63.76
2022-10-17T10:47:07.411Z,64.47
2022-10-17T10:50:31.606Z,64.21
2022-10-17T10:53:35.655Z,61.72
2022-10-17T10:56:31.807Z,54.31
2022-10-17T10:59:26.340Z,51.46
2022-10-17T11:02:16.394Z,49.82
2022-10-17T11:05:21.228Z,48.88
2022-10-17T11:08:17.688Z,48.88
2022-10-17T11:11:18.380Z,49.41
2022-10-17T11:14:21.445Z,48.53
2022-10-17T11:17:29.051Z,46.62
2022-10-17T11:20:59.886Z,47.08
2022-10-17T11:24:14.524Z,49.46
2022-10-17T11:27:06.236Z,51.52
2022-10-17T11:29:53.883Z,53.02
2022-10-17T11:33:03.297Z,54.16
2022-10-17T11:35:53.155Z,54.83
2022-10-17T11:38:50.460Z,53.75
2022-10-17T11:41:55.875Z,53.08
2022-10-17T11:44:44.758Z,51.84
2022-10-17T11:47:46.079Z,50.80
2022-10-17T11:54:25.143Z,52.60
2022-10-17T11:57:30.646Z,53.18
2022-10-17T12:00:58.233Z,53.67
2022-10-17T12:03:48.957Z,53.39
2022-10-17T12:07:01.190Z,53.68
2022-10-17T12:10:22.754Z,53.68
2022-10-17T12:13:49.436Z,53.95
2022-10-17T12:16:39.623Z,54.75
2022-10-17T12:19:36.950Z,54.35
2022-10-17T12:22:26.384Z,53.43
2022-10-17T12:25:22.953Z,53.67
2022-10-17T12:28:13.317Z,54.34
2022-10-17T12:31:16.412Z,55.47
2022-10-17T12:34:05.725Z,56.12
2022-10-17T12:36:53.359Z,56.49
2022-10-17T12:39:42.879Z,57.57
2022-10-17T12:42:32.992Z,57.76
2022-10-17T12:45:52.574Z,58.33
2022-10-17T12:48:40.602Z,59.07
2022-10-17T12:51:35.810Z,59.73
2022-10-17T12:54:24.165Z,59.82
2022-10-17T12:57:56.727Z,60.30
2022-10-17T13:01:11.855Z,61.20
2022-10-17T13:04:06.627Z,61.97
2022-10-17T13:07:01.094Z,62.41
2022-10-17T13:09:50.768Z,62.95
2022-10-17T13:12:41.146Z,63.45
2022-10-17T13:15:29.150Z,63.74
2022-10-17T13:18:35.455Z,64.19
2022-10-17T13:21:23.683Z,64.38
2022-10-17T13:24:31.666Z,64.61
2022-10-17T13:27:31.289Z,65.13
2022-10-17T13:30:35.276Z,65.80
2022-10-17T13:33:39.651Z,66.77
2022-10-17T13:36:29.519Z,67.52
2022-10-17T13:39:38.207Z,68.07
2022-10-17T13:42:38.521Z,68.48
2022-10-17T13:45:37.171Z,68.83
2022-10-17T13:48:30.759Z,69.14
2022-10-17T13:51:18.642Z,69.05
2022-10-17T13:54:40.493Z,69.27
2022-10-17T13:57:31.974Z,69.87
2022-10-17T14:00:23.057Z,70.24
2022-10-17T14:03:11.430Z,70.93
2022-10-17T14:06:04.890Z,71.37
2022-10-17T14:08:52.313Z,71.53
2022-10-17T14:11:44.633Z,72.13
2022-10-17T14:14:51.672Z,72.56
2022-10-17T14:17:40.407Z,72.80
2022-10-17T14:23:41.593Z,74.11
2022-10-17T14:26:29.674Z,74.65
2022-10-17T14:29:30.832Z,74.79
2022-10-17T14:32:19.638Z,75.62
2022-10-17T14:35:40.359Z,75.97
2022-10-17T14:38:25.120Z,76.50
2022-10-17T14:41:44.281Z,76.94
2022-10-17T14:44:36.124Z,77.34
2022-10-17T14:47:42.802Z,77.88
2022-10-17T14:50:33.420Z,78.25
2022-10-17T14:53:21.942Z,78.90
2022-10-17T14:56:40.763Z,79.65
2022-10-17T15:02:36.305Z,80.71
2022-10-17T15:05:24.163Z,81.26
2022-10-17T15:08:17.730Z,81.71
2022-10-17T15:11:05.815Z,82.14
2022-10-17T15:13:53.543Z,82.99
2022-10-17T15:16:41.383Z,83.50
2022-10-17T15:19:29.214Z,83.81
2022-10-17T15:22:18.315Z,84.58
2022-10-17T15:25:06.933Z,84.74
2022-10-17T15:27:55.833Z,85.17
2022-10-17T15:30:43.126Z,85.48
2022-10-17T15:33:30.871Z,86.31
2022-10-17T15:36:42.908Z,86.69
2022-10-17T15:39:30.731Z,87.26
2022-10-17T15:42:29.840Z,87.50
2022-10-17T15:45:44.149Z,88.31
2022-10-17T15:48:52.699Z,88.24
2022-10-17T15:51:42.031Z,89.09
2022-10-17T15:54:30.083Z,89.42
2022-10-17T15:57:24.071Z,89.45
2022-10-17T16:00:25.072Z,90.24
2022-10-17T16:03:14.344Z,90.95
2022-10-17T16:06:02.951Z,91.05
2022-10-17T16:08:52.148Z,90.90
2022-10-17T16:11:45.600Z,90.88
2022-10-17T16:14:37.332Z,91.44
2022-10-17T16:17:27.009Z,91.77
2022-10-17T16:20:18.702Z,91.95
2022-10-17T16:23:08.579Z,92.22
2022-10-17T16:25:55.941Z,92.79
2022-10-17T16:28:46.224Z,92.97
2022-10-17T16:31:36.869Z,93.71
2022-10-17T16:34:24.833Z,94.04
2022-10-17T16:37:12.569Z,93.74
2022-10-17T16:40:00.782Z,94.29
2022-10-17T16:42:48.941Z,94.32
2022-10-17T16:45:40.829Z,94.50
2022-10-17T16:48:29.814Z,94.36
2022-10-17T16:51:20.330Z,94.63
2022-10-17T16:54:10.177Z,94.94
2022-10-17T16:57:06.761Z,94.71
2022-10-17T16:59:55.353Z,95.50
2022-10-17T17:02:45.131Z,95.30
2022-10-17T17:05:46.136Z,95.84
2022-10-17T17:08:39.741Z,95.71
2022-10-17T17:11:32.510Z,95.73
2022-10-17T17:14:19.884Z,95.86
2022-10-17T17:17:12.322Z,95.40
2022-10-17T17:20:07.405Z,95.63
2022-10-17T17:22:55.272Z,95.93
2022-10-17T17:25:46.576Z,95.51
2022-10-17T17:28:35.734Z,95.44
2022-10-17T17:31:27.495Z,95.37
2022-10-17T17:34:18.212Z,94.94
2022-10-17T17:37:06.916Z,94.63
2022-10-17T17:39:55.011Z,94.44
2022-10-17T17:42:42.798Z,94.10
2022-10-17T17:45:30.478Z,94.32
2022-10-17T17:48:18.794Z,94.12
2022-10-17T17:51:15.496Z,94.13
2022-10-17T17:54:05.318Z,94.15
2022-10-17T17:56:53.455Z,94.01
2022-10-17T17:59:41.614Z,93.69
2022-10-17T18:02:29.750Z,93.30
2022-10-17T18:05:18.152Z,93.33
2022-10-17T18:08:06.102Z,92.88
2022-10-17T18:10:56.606Z,92.73
2022-10-17T18:13:44.895Z,92.29
2022-10-17T18:16:34.826Z,92.04
2022-10-17T18:19:23.916Z,91.47
2022-10-17T18:22:12.142Z,90.99
2022-10-17T18:25:00.089Z,90.26
2022-10-17T18:27:48.451Z,89.74
2022-10-17T18:30:40.104Z,89.19
2022-10-17T18:33:28.226Z,88.56
2022-10-17T18:36:18.238Z,88.36
2022-10-17T18:39:13.907Z,87.79
2022-10-17T18:42:06.648Z,87.28
2022-10-17T18:44:54.430Z,86.82
2022-10-17T18:47:48.014Z,86.39
2022-10-17T18:50:39.016Z,86.16
2022-10-17T18:53:26.734Z,85.74
2022-10-17T18:56:16.142Z,85.45
2022-10-17T18:59:04.266Z,85.40
2022-10-17T19:01:52.340Z,85.14
2022-10-17T19:04:40.700Z,84.88
2022-10-17T19:07:28.818Z,84.59
2022-10-17T19:10:18.243Z,84.26
2022-10-17T19:13:08.799Z,83.91
2022-10-17T19:15:58.172Z,83.74
2022-10-17T19:18:57.498Z,83.49
2022-10-17T19:21:46.032Z,83.21
2022-10-17T19:24:36.440Z,83.09
2022-10-17T19:27:23.998Z,82.67
2022-10-17T19:30:12.763Z,82.43
2022-10-17T19:33:00.702Z,82.03
2022-10-17T19:36:00.425Z,81.60
2022-10-17T19:38:49.638Z,81.61
2022-10-17T19:41:41.238Z,81.52
2022-10-17T19:44:29.252Z,81.53
2022-10-17T19:47:17.519Z,81.49
2022-10-17T19:50:06.940Z,81.42
2022-10-17T19:52:59.036Z,81.31
2022-10-17T19:56:16.730Z,81.08
2022-10-17T19:59:57.026Z,81.10
2022-10-17T20:02:49.570Z,81.01
2022-10-17T20:05:37.999Z,80.93
2022-10-17T20:11:23.583Z,80.86
2022-10-17T20:14:09.984Z,80.77
2022-10-17T20:16:56.582Z,80.78
2022-10-17T20:19:42.904Z,80.71
2022-10-17T20:22:29.452Z,80.73
2022-10-17T20:25:16.323Z,80.83
2022-10-17T20:28:02.666Z,80.82
2022-10-17T20:30:49.258Z,80.74
2022-10-17T20:33:35.714Z,80.77
2022-10-17T20:36:22.905Z,80.77
2022-10-17T20:39:14.346Z,80.84
2022-10-17T20:42:01.897Z,80.93
2022-10-17T20:44:48.342Z,80.99
2022-10-17T20:47:45.997Z,80.97
2022-10-17T20:50:39.609Z,81.08
2022-10-17T20:53:36.521Z,81.24
2022-10-17T20:56:28.102Z,81.51
2022-10-17T20:59:16.701Z,81.63
2022-10-17T21:02:05.689Z,81.68
2022-10-17T21:04:51.849Z,81.70
2022-10-17T21:07:38.210Z,81.73
2022-10-17T21:10:35.045Z,81.74
2022-10-17T21:13:21.701Z,81.84
2022-10-17T21:16:18.144Z,81.74
2022-10-17T21:19:05.696Z,81.77
2022-10-17T21:21:52.166Z,81.76
2022-10-17T21:24:38.753Z,81.81
2022-10-17T21:27:25.531Z,81.89
2022-10-17T21:30:12.017Z,81.84
2022-10-17T21:32:58.923Z,81.94
2022-10-17T21:35:45.474Z,81.92
2022-10-17T21:38:34.286Z,81.90
2022-10-17T21:41:34.730Z,81.92
2022-10-17T21:44:37.460Z,81.95
2022-10-17T21:47:31.909Z,81.94
2022-10-17T21:50:25.328Z,82.09
2022-10-17T21:53:12.996Z,82.12
2022-10-17T21:56:04.823Z,82.12
2022-10-17T21:58:53.090Z,82.23
2022-10-17T22:01:43.063Z,82.38
2022-10-17T22:04:29.374Z,82.47
2022-10-17T22:07:15.905Z,82.64
2022-10-17T22:10:03.188Z,82.70
2022-10-17T22:12:49.478Z,82.93
2022-10-17T22:15:36.047Z,83.07
2022-10-17T22:18:22.535Z,83.47
2022-10-17T22:21:20.232Z,83.64
2022-10-17T22:24:11.686Z,83.59
2022-10-17T22:26:58.086Z,83.44
2022-10-17T22:29:44.625Z,83.32
2022-10-17T22:32:30.569Z,83.23
2022-10-17T22:35:16.795Z,83.20
2022-10-17T22:38:03.005Z,83.11
2022-10-17T22:40:49.743Z,83.08
2022-10-17T22:43:36.025Z,83.12
2022-10-17T22:46:22.860Z,83.04
2022-10-17T22:49:09.282Z,83.25
2022-10-17T22:51:55.556Z,83.36
2022-10-17T22:54:42.226Z,83.57
2022-10-17T22:57:28.743Z,83.51
2022-10-17T23:00:17.241Z,83.52
2022-10-17T23:03:03.484Z,83.44
2022-10-17T23:05:50.443Z,83.34
2022-10-17T23:08:37.187Z,83.14
2022-10-17T23:11:23.354Z,83.00
2022-10-17T23:14:09.373Z,83.18
2022-10-17T23:16:55.840Z,83.21
2022-10-17T23:19:42.518Z,83.35
2022-10-17T23:22:29.123Z,83.65
2022-10-17T23:25:15.758Z,83.56
2022-10-17T23:28:02.470Z,83.73
2022-10-17T23:30:48.441Z,83.78
2022-10-17T23:33:34.433Z,84.11
2022-10-17T23:36:21.315Z,84.63
2022-10-17T23:39:08.683Z,84.83
2022-10-17T23:41:54.746Z,85.04
2022-10-17T23:44:41.412Z,85.20
2022-10-17T23:47:28.267Z,85.62
2022-10-17T23:50:15.790Z,86.03
2022-10-17T23:53:01.764Z,86.90
2022-10-17T23:55:48.597Z,87.40
2022-10-17T23:58:35.481Z,87.47
